Time;durP1;ratioP1;P1;durP2;ratioP2;P2;SDS_P1;SDS_P2;PMS_P1;PMS_P2;Temp;Humidity;BMP_temperature;BMP_pressure;BME280_temperature;BME280_humidity;BME280_pressure;Samples;Min_cycle;Max_cycle;Signal;HPM_P1;HPM_P2
2022/10/19 00:01:35;;;;;;;0.68;0.68;;;23.50;69.80;;;;;;6255291;28;20040;-56
2022/10/19 00:04:36;;;;;;;0.68;0.60;;;23.60;69.80;;;;;;6275080;28;20948;-56
2022/10/19 00:07:38;;;;;;;;;;;23.40;69.80;;;;;;6276184;28;20999;-54
2022/10/19 00:10:40;;;;;;;0.68;0.60;;;22.90;70.00;;;;;;6266700;28;19970;-54
2022/10/19 00:13:42;;;;;;;0.70;0.70;;;23.30;69.80;;;;;;6258355;28;20112;-54
2022/10/19 00:16:45;;;;;;;0.70;0.68;;;23.50;69.80;;;;;;6272414;28;20049;-55
2022/10/19 00:19:47;;;;;;;0.80;0.70;;;23.10;69.70;;;;;;6254578;28;20909;-55
2022/10/19 00:22:49;;;;;;;1.08;0.65;;;23.20;70.00;;;;;;6271010;28;20043;-54
2022/10/19 00:25:56;;;;;;;0.65;0.65;;;23.00;69.60;;;;;;6270667;28;20043;-52
2022/10/19 00:28:59;;;;;;;0.85;0.80;;;23.40;69.50;;;;;;6258461;28;20997;-54
2022/10/19 00:32:01;;;;;;;0.95;0.80;;;23.40;69.30;;;;;;6258121;28;20224;-53
2022/10/19 00:35:03;;;;;;;0.80;0.65;;;23.50;70.20;;;;;;6272153;28;20050;-53
2022/10/19 00:38:05;;;;;;;0.90;0.68;;;23.80;70.10;;;;;;6265521;28;20052;-54
2022/10/19 00:41:07;;;;;;;0.70;0.65;;;23.50;70.10;;;;;;6240686;28;20148;-55
2022/10/19 00:44:39;;;;;;;1.13;0.52;;;22.90;69.50;;;;;;6239572;28;20128;-54
2022/10/19 00:47:43;;;;;;;0.77;0.70;;;22.90;69.60;;;;;;6222829;28;20045;-52
2022/10/19 00:50:46;;;;;;;0.75;0.52;;;23.10;69.60;;;;;;6232722;28;20039;-54
2022/10/19 00:53:48;;;;;;;0.73;0.70;;;23.20;69.70;;;;;;6243163;28;20036;-55
2022/10/19 00:56:53;;;;;;;1.25;0.75;;;23.40;69.80;;;;;;6238988;28;20049;-53
2022/10/19 00:59:56;;;;;;;0.40;0.40;;;23.20;69.80;;;;;;6224707;28;20071;-54
2022/10/19 01:02:58;;;;;;;0.60;0.60;;;23.10;69.80;;;;;;6250222;28;20040;-52
2022/10/19 01:05:59;;;;;;;0.73;0.65;;;23.20;69.70;;;;;;6248617;28;20972;-53
2022/10/19 01:09:01;;;;;;;0.52;0.52;;;23.50;69.90;;;;;;6248547;28;20044;-52
2022/10/19 01:12:10;;;;;;;0.73;0.70;;;23.70;70.10;;;;;;6252109;28;20908;-53
2022/10/19 01:15:21;;;;;;;0.90;0.80;;;23.10;69.40;;;;;;6249205;28;20055;-53
2022/10/19 01:18:32;;;;;;;0.97;0.70;;;23.20;69.60;;;;;;6240989;28;20916;-55
2022/10/19 01:21:41;;;;;;;0.55;0.50;;;23.10;69.70;;;;;;6242492;28;20036;-55
2022/10/19 01:25:03;;;;;;;1.15;0.63;;;23.20;69.60;;;;;;6245782;28;20044;-54
2022/10/19 01:28:23;;;;;;;0.80;0.73;;;23.70;70.00;;;;;;6227349;28;20796;-51
2022/10/19 01:31:31;;;;;;;0.68;0.60;;;23.30;69.60;;;;;;6240546;28;20147;-54
2022/10/19 01:34:39;;;;;;;0.70;0.70;;;22.80;69.50;;;;;;6244851;28;20131;-54
2022/10/19 01:37:47;;;;;;;0.82;0.60;;;23.00;69.40;;;;;;6249286;28;20768;-52
2022/10/19 01:40:55;;;;;;;0.70;0.60;;;22.90;69.50;;;;;;6242439;22;20048;-54
2022/10/19 01:44:03;;;;;;;0.80;0.70;;;23.20;69.60;;;;;;6228188;28;20880;-54
2022/10/19 01:47:09;;;;;;;0.57;0.57;;;23.10;69.60;;;;;;6230377;28;20048;-52
2022/10/19 01:50:17;;;;;;;0.63;0.60;;;23.20;69.60;;;;;;6207299;28;21111;-53
2022/10/19 01:53:20;;;;;;;0.82;0.77;;;23.30;69.60;;;;;;6233534;28;20172;-54
2022/10/19 01:56:26;;;;;;;0.80;0.68;;;23.00;69.50;;;;;;6218695;28;20040;-55
2022/10/19 01:59:29;;;;;;;0.65;0.60;;;23.40;69.80;;;;;;6217442;28;20983;-51
2022/10/19 02:02:31;;;;;;;0.68;0.57;;;23.10;69.20;;;;;;6229023;28;20860;-52
2022/10/19 02:05:35;;;;;;;0.70;0.70;;;23.10;69.70;;;;;;6219560;28;20045;-52
2022/10/19 02:08:43;;;;;;;0.70;0.60;;;23.00;69.50;;;;;;6229621;28;20052;-54
2022/10/19 02:11:46;;;;;;;0.65;0.65;;;22.80;69.30;;;;;;6231870;28;20156;-55
2022/10/19 02:14:57;;;;;;;1.08;0.60;;;23.20;69.60;;;;;;6212191;28;20109;-54
2022/10/19 02:18:00;;;;;;;0.68;0.60;;;22.90;69.40;;;;;;6232934;28;20037;-53
2022/10/19 02:21:04;;;;;;;0.50;0.40;;;23.20;69.70;;;;;;6226853;28;20032;-54
2022/10/19 02:24:05;;;;;;;0.52;0.40;;;22.90;69.40;;;;;;6210644;28;20832;-55
2022/10/19 02:27:08;;;;;;;0.90;0.50;;;22.80;69.30;;;;;;6232644;28;20072;-55
2022/10/19 02:30:11;;;;;;;0.47;0.47;;;23.20;69.30;;;;;;6228350;28;20461;-54
2022/10/19 02:33:14;;;;;;;0.63;0.57;;;23.20;69.50;;;;;;6227242;28;20314;-53
2022/10/19 02:36:16;;;;;;;0.40;0.40;;;23.10;69.50;;;;;;6228122;28;20420;-50
2022/10/19 02:39:18;;;;;;;0.50;0.50;;;23.30;84.30;;;;;;6219964;28;20197;-51
2022/10/19 02:42:27;;;;;;;0.52;0.50;;;23.10;69.40;;;;;;6199306;28;21433;-52
2022/10/19 02:45:31;;;;;;;0.60;0.45;;;23.00;69.30;;;;;;6205414;28;20166;-50
2022/10/19 02:48:35;;;;;;;0.52;0.50;;;22.90;69.00;;;;;;6203081;28;20183;-50
2022/10/19 02:51:39;;;;;;;0.50;0.50;;;23.00;69.20;;;;;;6205006;28;20148;-48
2022/10/19 02:54:43;;;;;;;0.55;0.55;;;22.90;69.10;;;;;;6193688;28;20987;-50
2022/10/19 02:57:44;;;;;;;0.50;0.50;;;22.70;69.00;;;;;;6190713;28;20051;-52
2022/10/19 03:00:45;;;;;;;;;;;23.10;69.40;;;;;;6202149;28;20089;-51
2022/10/19 03:03:47;;;;;;;0.77;0.40;;;22.90;69.50;;;;;;6205603;28;20317;-48
2022/10/19 03:06:49;;;;;;;0.60;0.40;;;23.20;69.60;;;;;;6207259;28;20077;-52
2022/10/19 03:09:50;;;;;;;;;;;22.80;69.30;;;;;;6203858;28;20075;-52
2022/10/19 03:12:52;;;;;;;0.60;0.43;;;22.70;69.40;;;;;;6206925;28;19949;-52
2022/10/19 03:15:53;;;;;;;0.40;0.40;;;22.90;69.40;;;;;;6200254;28;20427;-48
2022/10/19 03:18:55;;;;;;;0.50;0.38;;;23.10;69.10;;;;;;6205072;28;20077;-47
2022/10/19 03:21:57;;;;;;;0.35;0.32;;;23.10;69.30;;;;;;6198348;28;20076;-49
2022/10/19 03:24:58;;;;;;;0.40;0.40;;;23.20;69.50;;;;;;6203079;28;20130;-49
2022/10/19 03:28:00;;;;;;;0.95;0.60;;;23.00;69.30;;;;;;6203662;28;20155;-49
2022/10/19 03:31:01;;;;;;;;;;;23.20;69.40;;;;;;6204746;28;20048;-50
2022/10/19 03:34:03;;;;;;;0.30;0.30;;;23.40;69.40;;;;;;6202750;28;20193;-51
2022/10/19 03:37:05;;;;;;;0.52;0.52;;;22.90;69.20;;;;;;6206909;28;20143;-52
2022/10/19 03:40:07;;;;;;;0.50;0.50;;;22.70;69.00;;;;;;6185140;28;20519;-51
2022/10/19 03:43:09;;;;;;;0.40;0.40;;;23.10;69.10;;;;;;6199289;28;20745;-50
2022/10/19 03:46:11;;;;;;;0.47;0.47;;;23.10;69.30;;;;;;6204166;28;20038;-48
2022/10/19 03:49:13;;;;;;;0.63;0.50;;;23.10;68.60;;;;;;6196187;28;20047;-50
2022/10/19 03:52:14;;;;;;;0.57;0.40;;;23.30;69.20;;;;;;6191950;28;20041;-50
2022/10/19 03:55:17;;;;;;;0.50;0.40;;;23.20;69.10;;;;;;6204886;28;20822;-50
2022/10/19 03:58:18;;;;;;;0.77;0.55;;;23.10;69.00;;;;;;6183581;28;20564;-52
2022/10/19 04:01:23;;;;;;;0.43;0.43;;;23.20;69.40;;;;;;6206038;28;20289;-48
2022/10/19 04:04:25;;;;;;;0.43;0.40;;;23.30;69.00;;;;;;6202967;28;20052;-48
2022/10/19 04:07:26;;;;;;;0.40;0.40;;;22.50;68.70;;;;;;6182955;28;20527;-50
2022/10/19 04:10:30;;;;;;;0.50;0.47;;;23.10;68.90;;;;;;6201330;28;20971;-49
2022/10/19 04:13:32;;;;;;;0.40;0.30;;;22.90;68.80;;;;;;6206176;28;20041;-49
2022/10/19 04:16:34;;;;;;;0.47;0.40;;;22.90;68.70;;;;;;6180675;28;20154;-49
2022/10/19 04:19:36;;;;;;;1.30;0.50;;;23.20;68.90;;;;;;6197320;28;20133;-50
2022/10/19 04:22:37;;;;;;;0.70;0.50;;;23.00;68.80;;;;;;6195712;28;20044;-51
2022/10/19 04:25:39;;;;;;;;;;;23.10;69.00;;;;;;6197538;28;20938;-52
2022/10/19 04:28:40;;;;;;;0.40;0.40;;;23.10;68.30;;;;;;6196008;28;20488;-52
2022/10/19 04:31:42;;;;;;;0.65;0.40;;;23.20;69.00;;;;;;6191570;28;20391;-48
2022/10/19 04:34:44;;;;;;;0.63;0.50;;;23.00;69.00;;;;;;6193543;28;20192;-49
2022/10/19 04:37:46;;;;;;;0.52;0.40;;;23.00;68.80;;;;;;6196329;28;21271;-50
2022/10/19 04:40:47;;;;;;;;;;;22.90;68.90;;;;;;6195741;28;20072;-53
2022/10/19 04:43:53;;;;;;;0.47;0.40;;;23.20;69.20;;;;;;6201294;28;20101;-51
2022/10/19 04:46:55;;;;;;;0.40;0.30;;;23.10;68.70;;;;;;6198190;28;20430;-49
2022/10/19 04:49:57;;;;;;;0.50;0.50;;;23.10;68.50;;;;;;6194510;28;20176;-53
2022/10/19 04:52:58;;;;;;;0.50;0.40;;;23.10;68.90;;;;;;6198024;28;20236;-49
2022/10/19 04:56:03;;;;;;;;;;;23.20;69.00;;;;;;6194279;28;20473;-47
2022/10/19 04:59:04;;;;;;;0.47;0.45;;;23.10;69.10;;;;;;6199222;28;20970;-54
2022/10/19 05:02:05;;;;;;;;;;;22.80;68.90;;;;;;6197229;28;20041;-54
2022/10/19 05:05:08;;;;;;;0.40;0.40;;;22.80;69.10;;;;;;6198506;28;19933;-55
2022/10/19 05:08:10;;;;;;;0.60;0.40;;;23.10;68.90;;;;;;6196637;28;20110;-53
2022/10/19 05:11:13;;;;;;;0.40;0.40;;;22.90;68.80;;;;;;6185859;28;20034;-52
2022/10/19 05:14:15;;;;;;;0.60;0.57;;;23.20;69.00;;;;;;6204142;28;20045;-54
2022/10/19 05:17:17;;;;;;;0.45;0.40;;;22.70;68.80;;;;;;6204526;28;20092;-53
2022/10/19 05:20:19;;;;;;;0.60;0.50;;;22.70;68.80;;;;;;6195765;28;20131;-52
2022/10/19 05:23:20;;;;;;;0.40;0.40;;;23.20;69.00;;;;;;6198959;28;20047;-54
2022/10/19 05:26:23;;;;;;;0.30;0.30;;;23.00;68.90;;;;;;6200607;28;21014;-52
2022/10/19 05:29:25;;;;;;;0.40;0.40;;;22.90;68.70;;;;;;6201866;28;20045;-52
2022/10/19 05:32:27;;;;;;;0.52;0.50;;;22.80;68.80;;;;;;6195241;28;20073;-55
2022/10/19 05:35:29;;;;;;;0.55;0.40;;;22.70;68.60;;;;;;6178259;28;20155;-54
2022/10/19 05:38:30;;;;;;;0.60;0.40;;;22.50;68.60;;;;;;6178599;28;20081;-54
2022/10/19 05:41:32;;;;;;;;;;;22.90;68.80;;;;;;6192426;28;21265;-52
2022/10/19 05:44:33;;;;;;;0.45;0.40;;;23.10;69.00;;;;;;6186167;28;21391;-54
2022/10/19 05:47:35;;;;;;;0.60;0.50;;;22.90;68.90;;;;;;6186986;28;20080;-54
2022/10/19 05:50:38;;;;;;;0.75;0.40;;;23.20;69.00;;;;;;6189950;28;20122;-53
2022/10/19 05:53:40;;;;;;;0.60;0.40;;;23.10;68.90;;;;;;6175772;28;20059;-55
2022/10/19 05:56:45;;;;;;;0.80;0.40;;;23.10;68.90;;;;;;6149739;28;20905;-54
2022/10/19 05:59:47;;;;;;;0.70;0.50;;;22.90;68.80;;;;;;6145187;28;21073;-54
2022/10/19 06:02:48;;;;;;;;;;;23.10;69.00;;;;;;6164546;28;20037;-55
2022/10/19 06:05:51;;;;;;;0.90;0.50;;;23.20;68.70;;;;;;6174504;28;19968;-54
2022/10/19 06:08:55;;;;;;;1.25;0.50;;;22.90;68.90;;;;;;6138157;28;20119;-50
2022/10/19 06:11:56;;;;;;;0.65;0.50;;;23.10;69.20;;;;;;6165484;28;20176;-54
2022/10/19 06:14:59;;;;;;;0.73;0.52;;;22.70;69.00;;;;;;6163453;28;20088;-53
2022/10/19 06:18:00;;;;;;;;;;;23.20;69.60;;;;;;6159828;28;20098;-52
2022/10/19 06:21:03;;;;;;;;;;;22.90;69.20;;;;;;6146260;28;19924;-53
2022/10/19 06:24:05;;;;;;;1.27;0.68;;;23.20;69.70;;;;;;6140666;28;20067;-56
2022/10/19 06:27:06;;;;;;;0.82;0.40;;;22.80;69.10;;;;;;6157932;28;20128;-53
2022/10/19 06:30:13;;;;;;;0.73;0.63;;;23.10;69.50;;;;;;6125716;28;20041;-56
2022/10/19 06:33:15;;;;;;;1.77;0.50;;;23.10;69.10;;;;;;6115305;28;20045;-54
2022/10/19 06:36:19;;;;;;;1.42;0.85;;;23.30;69.40;;;;;;6124261;28;20826;-54
2022/10/19 06:39:20;;;;;;;1.20;0.70;;;23.10;69.20;;;;;;6145029;28;20041;-53
2022/10/19 06:42:22;;;;;;;;;;;23.20;69.30;;;;;;6131818;28;20048;-52
2022/10/19 06:45:23;;;;;;;1.00;0.60;;;23.20;69.20;;;;;;6112591;28;19929;-53
2022/10/19 06:48:25;;;;;;;1.27;0.57;;;22.70;68.90;;;;;;6094969;28;20040;-52
2022/10/19 06:51:29;;;;;;;0.70;0.38;;;23.20;68.60;;;;;;6080448;28;20041;-54
2022/10/19 06:54:31;;;;;;;0.80;0.60;;;22.50;68.30;;;;;;6077085;28;20184;-53
2022/10/19 06:57:32;;;;;;;;;;;23.10;68.80;;;;;;6065006;28;20037;-53
2022/10/19 07:00:34;;;;;;;1.75;0.70;;;23.40;68.80;;;;;;6029419;28;19929;-58
2022/10/19 07:03:36;;;;;;;3.92;1.60;;;23.30;68.60;;;;;;6020435;28;20047;-57
2022/10/19 07:06:41;;;;;;;0.95;0.77;;;22.90;68.50;;;;;;6019890;22;20040;31
2022/10/19 07:09:43;;;;;;;1.17;0.50;;;23.10;67.20;;;;;;6217346;28;20124;-57
2022/10/19 07:12:45;;;;;;;2.22;1.00;;;23.40;69.00;;;;;;6299032;28;20048;-64
2022/10/19 07:15:47;;;;;;;1.52;0.60;;;23.10;68.60;;;;;;6299184;28;20040;-59
2022/10/19 07:18:51;;;;;;;4.07;0.88;;;23.30;68.60;;;;;;6297598;28;20078;-54
2022/10/19 07:21:52;;;;;;;2.60;0.90;;;23.40;68.30;;;;;;6281251;28;20033;-60
2022/10/19 07:24:54;;;;;;;4.55;1.02;;;23.30;68.30;;;;;;6298479;28;20044;-55
2022/10/19 07:27:57;;;;;;;1.95;0.60;;;23.50;68.20;;;;;;6299329;28;20089;-55
2022/10/19 07:31:04;;;;;;;4.13;0.75;;;23.60;68.10;;;;;;6298620;28;20055;-65
2022/10/19 07:34:05;;;;;;;1.73;0.60;;;23.60;68.10;;;;;;6264254;28;20089;-61
2022/10/19 07:37:07;;;;;;;;;;;23.50;68.20;;;;;;6299215;28;20086;-65
2022/10/19 07:40:13;;;;;;;1.13;0.60;;;23.40;68.20;;;;;;6298799;28;19924;-46
2022/10/19 07:43:14;;;;;;;2.22;0.57;;;23.60;68.00;;;;;;6298846;28;20380;-61
2022/10/19 07:46:18;;;;;;;1.35;0.60;;;23.40;67.70;;;;;;6299047;28;20402;-58
2022/10/19 07:49:21;;;;;;;3.47;0.60;;;23.70;67.80;;;;;;6280669;28;20109;-56
2022/10/19 07:52:24;;;;;;;1.25;0.60;;;23.60;67.80;;;;;;6299190;28;20036;-55
2022/10/19 07:55:26;;;;;;;5.43;1.08;;;23.80;68.00;;;;;;6298387;28;20067;-59
2022/10/19 07:58:29;;;;;;;1.58;0.60;;;23.50;67.60;;;;;;6298410;28;20139;-57
2022/10/19 08:01:32;;;;;;;2.10;1.02;;;23.90;67.70;;;;;;6298848;28;20033;-55
2022/10/19 08:04:38;;;;;;;1.25;0.52;;;23.60;67.20;;;;;;6297299;28;20044;-52
2022/10/19 08:08:01;;;;;;;1.67;0.40;;;24.10;67.40;;;;;;6284181;28;20391;-52
2022/10/19 08:11:08;;;;;;;3.30;0.60;;;23.70;66.60;;;;;;6298137;28;20068;-54
2022/10/19 08:14:10;;;;;;;1.38;0.50;;;23.90;67.00;;;;;;6298399;28;20088;-54
2022/10/19 08:17:16;;;;;;;1.25;0.40;;;23.70;66.80;;;;;;6298468;28;20112;-55
2022/10/19 08:20:18;;;;;;;1.13;0.80;;;24.10;67.00;;;;;;6298222;28;20032;-52
2022/10/19 08:23:22;;;;;;;1.38;0.40;;;23.70;66.10;;;;;;6298388;28;20590;-55
2022/10/19 08:26:27;;;;;;;0.73;0.52;;;23.50;66.10;;;;;;6298049;28;20127;-55
2022/10/19 08:29:28;;;;;;;0.55;0.40;;;23.90;66.40;;;;;;6296679;28;20154;-55
2022/10/19 08:32:33;;;;;;;0.52;0.40;;;23.70;66.40;;;;;;6298079;28;20429;-53
2022/10/19 08:35:37;;;;;;;0.80;0.50;;;23.80;66.00;;;;;;6297295;28;20442;-51
2022/10/19 08:38:42;;;;;;;0.50;0.30;;;24.20;66.50;;;;;;6298506;28;20476;-53
2022/10/19 08:41:56;;;;;;;1.05;0.38;;;24.00;66.30;;;;;;6296845;28;20078;-52
2022/10/19 08:45:20;;;;;;;1.30;0.40;;;23.90;66.00;;;;;;6280143;28;20048;-56
2022/10/19 08:48:27;;;;;;;0.77;0.57;;;23.50;65.90;;;;;;6297477;28;20384;-55
2022/10/19 08:51:36;;;;;;;1.10;0.35;;;23.90;65.90;;;;;;6279803;28;20139;-56
2022/10/19 08:54:47;;;;;;;0.85;0.70;;;23.90;66.00;;;;;;6297590;28;20040;-57
2022/10/19 08:57:53;;;;;;;1.33;0.47;;;24.10;66.00;;;;;;6297101;28;20178;-57
2022/10/19 09:00:59;;;;;;;0.43;0.43;;;24.20;66.00;;;;;;6296678;28;20399;-56
2022/10/19 09:04:04;;;;;;;0.60;0.50;;;23.80;65.70;;;;;;6297320;28;20044;-55
2022/10/19 09:07:24;;;;;;;1.23;0.45;;;23.90;65.80;;;;;;6295811;28;20060;-53
2022/10/19 09:10:28;;;;;;;2.25;0.50;;;24.00;65.60;;;;;;6297051;28;20044;-55
2022/10/19 09:13:36;;;;;;;3.28;0.60;;;24.30;66.00;;;;;;6296621;28;20048;-58
2022/10/19 09:17:02;;;;;;;2.03;0.70;;;23.90;65.70;;;;;;6296058;28;20042;-54
2022/10/19 09:20:16;;;;;;;2.65;0.50;;;23.80;65.70;;;;;;6297133;28;20144;-47
2022/10/19 09:23:24;;;;;;;0.55;0.55;;;24.20;65.80;;;;;;6279478;28;20044;-53
2022/10/19 09:26:31;;;;;;;1.25;0.70;;;24.20;65.70;;;;;;6295621;28;20041;-56
2022/10/19 09:29:39;;;;;;;1.30;0.85;;;24.00;65.60;;;;;;6295404;28;20048;-50
2022/10/19 09:32:42;;;;;;;0.75;0.50;;;24.00;65.50;;;;;;6297426;28;20040;-49
2022/10/19 09:35:45;;;;;;;1.65;0.88;;;24.30;65.60;;;;;;6296489;28;20048;-50
2022/10/19 09:38:48;;;;;;;1.10;0.57;;;24.40;65.50;;;;;;6296541;28;20045;-47
2022/10/19 09:41:53;;;;;;;1.23;0.70;;;23.90;65.20;;;;;;6295543;28;20094;-54
2022/10/19 09:45:00;;;;;;;0.70;0.60;;;24.50;65.40;;;;;;6296734;28;20040;-52
2022/10/19 09:48:03;;;;;;;0.90;0.70;;;24.20;65.20;;;;;;6294648;28;20044;-53
2022/10/19 09:51:14;;;;;;;1.27;0.70;;;24.00;65.00;;;;;;6296966;28;20088;-56
2022/10/19 09:54:30;;;;;;;0.82;0.70;;;24.40;65.10;;;;;;6294942;28;20380;-53
2022/10/19 09:57:32;;;;;;;0.75;0.60;;;24.40;64.90;;;;;;6295364;28;20048;-55
2022/10/19 10:00:37;;;;;;;2.13;0.70;;;24.40;64.90;;;;;;6296727;28;20040;-53
2022/10/19 10:03:39;;;;;;;0.60;0.50;;;24.30;64.70;;;;;;6296563;28;20377;-54
2022/10/19 10:06:43;;;;;;;0.85;0.73;;;24.20;64.50;;;;;;6296593;28;20060;-53
2022/10/19 10:09:45;;;;;;;0.77;0.70;;;24.00;64.30;;;;;;6296728;28;20074;-54
2022/10/19 10:12:47;;;;;;;2.03;0.77;;;24.40;64.30;;;;;;6296521;28;20110;-55
2022/10/19 10:15:56;;;;;;;1.15;0.90;;;24.50;64.30;;;;;;6296799;28;20458;-53
2022/10/19 10:19:01;;;;;;;0.80;0.60;;;24.40;64.10;;;;;;6294931;28;20075;-54
2022/10/19 10:22:03;;;;;;;0.63;0.63;;;24.30;63.90;;;;;;6296504;28;20448;-54
2022/10/19 10:25:15;;;;;;;1.00;0.80;;;24.40;63.90;;;;;;6296756;28;20388;-54
2022/10/19 10:28:19;;;;;;;0.80;0.70;;;24.60;63.80;;;;;;6294859;28;20430;-56
2022/10/19 10:31:24;;;;;;;1.30;0.80;;;24.30;63.60;;;;;;6278501;28;20145;-56
2022/10/19 10:34:34;;;;;;;1.30;1.08;;;24.20;63.40;;;;;;6296680;28;20040;-56
2022/10/19 10:37:52;;;;;;;1.48;1.00;;;24.60;63.60;;;;;;6295646;28;20487;-54
2022/10/19 10:40:59;;;;;;;0.55;0.43;;;24.50;63.50;;;;;;6296216;28;20037;-56
2022/10/19 10:44:05;;;;;;;1.13;0.73;;;24.20;63.10;;;;;;6296531;28;20044;-55
2022/10/19 10:47:13;;;;;;;0.77;0.63;;;24.50;63.40;;;;;;6296270;28;20068;-55
2022/10/19 10:50:20;;;;;;;1.20;0.63;;;24.50;63.40;;;;;;6294560;28;20071;-56
2022/10/19 10:53:38;;;;;;;1.70;1.20;;;24.50;63.50;;;;;;6294422;28;20472;-55
2022/10/19 10:56:42;;;;;;;2.50;1.50;;;24.00;63.40;;;;;;6295332;28;20036;-56
2022/10/19 10:59:53;;;;;;;2.75;1.58;;;24.10;63.60;;;;;;6296715;28;20468;-53
2022/10/19 11:03:03;;;;;;;2.03;1.40;;;24.80;64.00;;;;;;6300046;28;20094;-55
2022/10/19 11:06:07;;;;;;;2.35;1.40;;;24.30;64.00;;;;;;6298538;28;20106;-55
2022/10/19 11:09:16;;;;;;;1.92;1.20;;;23.90;63.70;;;;;;6299860;28;20412;-56
2022/10/19 11:12:30;;;;;;;2.67;1.80;;;24.50;64.30;;;;;;6299324;28;20040;-55
2022/10/19 11:15:43;;;;;;;3.28;1.40;;;24.30;64.10;;;;;;6298929;28;20464;-55
2022/10/19 11:18:49;;;;;;;6.05;1.75;;;24.10;64.00;;;;;;6299787;28;20063;-56
2022/10/19 11:22:00;;;;;;;2.00;1.30;;;24.20;64.30;;;;;;6298944;28;20048;-53
2022/10/19 11:25:09;;;;;;;;;;;24.20;64.40;;;;;;6299595;28;20036;-56
2022/10/19 11:28:24;;;;;;;3.60;1.60;;;24.30;64.70;;;;;;6299429;28;19916;-55
2022/10/19 11:31:36;;;;;;;4.13;1.50;;;24.40;64.50;;;;;;6299220;28;20024;-56
2022/10/19 11:34:53;;;;;;;3.58;1.48;;;24.50;64.60;;;;;;6298614;28;20044;-56
2022/10/19 11:38:04;;;;;;;2.58;1.40;;;24.50;64.80;;;;;;6299600;28;20345;-57
2022/10/19 11:41:29;;;;;;;3.60;1.70;;;24.00;64.30;;;;;;6299210;28;20045;-56
2022/10/19 11:44:45;;;;;;;6.38;2.22;;;24.50;64.70;;;;;;6297624;28;20052;-54
2022/10/19 11:48:06;;;;;;;4.80;1.50;;;24.20;64.60;;;;;;6298617;28;20388;-54
2022/10/19 11:51:16;;;;;;;3.33;1.58;;;24.40;64.80;;;;;;6299195;28;20217;-57
2022/10/19 11:54:37;;;;;;;4.68;1.83;;;24.30;64.70;;;;;;6298830;28;20041;-58
2022/10/19 11:57:45;;;;;;;3.70;1.92;;;24.50;64.90;;;;;;6299089;28;20044;-56
2022/10/19 12:00:53;;;;;;;5.20;1.60;;;24.20;64.70;;;;;;6298790;28;20036;-57
2022/10/19 12:04:12;;;;;;;5.40;1.70;;;24.20;64.50;;;;;;6297186;28;20070;-56
2022/10/19 12:07:35;;;;;;;5.63;1.58;;;24.50;64.40;;;;;;6298132;28;20032;-56
2022/10/19 12:10:44;;;;;;;2.35;1.50;;;24.30;64.40;;;;;;6297890;28;20067;-58
2022/10/19 12:13:50;;;;;;;3.50;1.50;;;24.60;64.50;;;;;;6298183;28;20067;-56
2022/10/19 12:16:55;;;;;;;3.50;1.83;;;24.20;64.20;;;;;;6298391;28;20040;-56
2022/10/19 12:20:00;;;;;;;3.72;1.80;;;24.30;64.20;;;;;;6298175;28;20147;-56
2022/10/19 12:23:20;;;;;;;2.72;1.40;;;24.30;64.20;;;;;;6296685;28;20058;-55
2022/10/19 12:26:23;;;;;;;3.03;1.10;;;24.40;64.10;;;;;;6296688;28;20045;-57
2022/10/19 12:29:27;;;;;;;2.40;1.38;;;24.60;64.20;;;;;;6298133;28;20036;-57
2022/10/19 12:32:35;;;;;;;0.90;0.60;;;24.50;64.10;;;;;;6296707;28;20044;-57
2022/10/19 12:35:52;;;;;;;0.75;0.70;;;24.50;64.10;;;;;;6298221;28;20041;-56
2022/10/19 12:39:03;;;;;;;1.33;0.77;;;24.60;64.20;;;;;;6298369;28;20036;-59
2022/10/19 12:42:18;;;;;;;2.75;0.90;;;24.50;64.20;;;;;;6298409;28;20044;-57
2022/10/19 12:45:30;;;;;;;1.40;1.13;;;24.50;64.30;;;;;;6297672;28;20360;-53
2022/10/19 12:48:31;;;;;;;2.38;1.05;;;24.50;64.30;;;;;;6280266;28;20049;-56
2022/10/19 12:51:44;;;;;;;2.40;1.25;;;24.40;64.10;;;;;;6297671;28;20047;-55
2022/10/19 12:54:47;;;;;;;5.43;1.60;;;24.50;64.30;;;;;;6297357;28;20048;-52
2022/10/19 12:58:03;;;;;;;6.40;1.88;;;24.60;64.20;;;;;;6296471;28;20127;-56
2022/10/19 13:01:06;;;;;;;2.17;1.65;;;24.90;64.40;;;;;;6297435;28;20044;-55
2022/10/19 13:04:11;;;;;;;3.08;1.23;;;24.70;64.10;;;;;;6296449;28;20052;-58
2022/10/19 13:07:17;;;;;;;2.38;1.70;;;24.70;63.90;;;;;;6297434;28;20036;-53
2022/10/19 13:10:22;;;;;;;3.45;1.30;;;24.70;63.80;;;;;;6297513;28;20043;-56
2022/10/19 13:13:50;;;;;;;2.47;1.17;;;24.60;63.80;;;;;;6297279;28;20059;-58
2022/10/19 13:16:57;;;;;;;3.22;1.38;;;24.70;63.60;;;;;;6296131;28;20045;-58
2022/10/19 13:20:28;;;;;;;4.93;1.40;;;24.60;63.50;;;;;;6297386;28;20044;-53
2022/10/19 13:23:40;;;;;;;2.08;1.30;;;24.50;63.30;;;;;;6295293;28;20044;-50
2022/10/19 13:26:43;;;;;;;4.35;1.30;;;24.70;63.50;;;;;;6297122;28;20044;-54
2022/10/19 13:29:45;;;;;;;1.63;1.40;;;24.70;63.40;;;;;;6297081;28;20041;-57
2022/10/19 13:32:46;;;;;;;2.00;1.30;;;24.90;63.40;;;;;;6296923;28;20041;-58
2022/10/19 13:36:06;;;;;;;4.00;1.50;;;24.60;63.20;;;;;;6297332;28;20044;-57
2022/10/19 13:39:13;;;;;;;3.88;1.42;;;24.70;62.90;;;;;;6297061;28;20036;-58
2022/10/19 13:42:24;;;;;;;4.22;1.55;;;24.90;63.10;;;;;;6296344;28;20051;-57
2022/10/19 13:45:26;;;;;;;3.25;1.98;;;25.00;63.20;;;;;;6295764;28;20048;-58
2022/10/19 13:48:37;;;;;;;3.97;1.70;;;24.90;63.20;;;;;;6296973;28;20040;-58
2022/10/19 13:51:53;;;;;;;3.67;1.77;;;24.90;63.20;;;;;;6295371;28;20063;-60
2022/10/19 13:55:22;;;;;;;4.40;1.67;;;24.90;63.20;;;;;;6296953;28;20044;-62
2022/10/19 13:58:42;;;;;;;3.40;1.60;;;24.80;63.20;;;;;;6296271;28;20064;-60
2022/10/19 14:01:56;;;;;;;1.80;1.33;;;25.10;63.50;;;;;;6280133;28;20041;-59
2022/10/19 14:05:14;;;;;;;3.53;1.60;;;24.90;63.20;;;;;;6296499;28;20093;-62
2022/10/19 14:08:40;;;;;;;2.45;1.50;;;24.60;63.00;;;;;;6296084;28;20041;-62
2022/10/19 14:11:45;;;;;;;3.30;1.48;;;25.30;63.50;;;;;;6296981;28;20041;-61
2022/10/19 14:14:47;;;;;;;4.32;1.67;;;24.80;63.20;;;;;;6296556;28;20044;-61
2022/10/19 14:17:48;;;;;;;2.03;1.58;;;24.70;63.30;;;;;;6296429;28;20371;-64
2022/10/19 14:20:56;;;;;;;2.80;1.65;;;25.00;63.70;;;;;;6296230;28;20090;-62
2022/10/19 14:23:58;;;;;;;3.55;1.80;;;25.00;63.70;;;;;;6296556;28;20040;-62
2022/10/19 14:27:02;;;;;;;2.13;1.70;;;24.90;63.50;;;;;;6296281;28;20047;-66
2022/10/19 14:30:05;;;;;;;2.67;1.88;;;24.80;63.50;;;;;;6295074;28;20048;-64
2022/10/19 14:33:09;;;;;;;3.55;2.30;;;24.60;63.40;;;;;;6296422;28;20395;-63
2022/10/19 14:36:16;;;;;;;3.35;2.22;;;24.60;63.50;;;;;;6255477;22;20060;-60
2022/10/19 14:39:33;;;;;;;4.03;2.17;;;24.40;63.60;;;;;;5986499;28;21739;-59
2022/10/19 14:42:39;;;;;;;3.17;2.13;;;24.80;63.90;;;;;;5983620;28;20970;-60
2022/10/19 14:45:42;;;;;;;5.10;2.33;;;24.70;63.90;;;;;;5961734;28;20056;-61
2022/10/19 14:48:45;;;;;;;2.63;1.98;;;24.70;64.00;;;;;;5988075;28;20040;-63
2022/10/19 14:51:51;;;;;;;5.65;1.70;;;24.70;64.10;;;;;;5975982;28;20040;-59
2022/10/19 14:54:54;;;;;;;3.10;1.77;;;24.70;64.20;;;;;;5989350;28;20053;-57
2022/10/19 14:57:56;;;;;;;3.33;1.98;;;24.70;64.40;;;;;;6003549;28;40146;-58
2022/10/19 15:00:58;;;;;;;2.83;1.52;;;24.90;64.50;;;;;;5959626;28;20158;-58
2022/10/19 15:04:00;;;;;;;3.72;1.80;;;24.70;64.40;;;;;;5943035;28;20048;-57
2022/10/19 15:07:12;;;;;;;2.83;1.58;;;24.70;64.40;;;;;;5934994;28;20041;-58
2022/10/19 15:10:19;;;;;;;1.92;1.40;;;24.50;64.30;;;;;;5956298;28;20041;-56
2022/10/19 15:13:25;;;;;;;1.40;1.15;;;24.80;64.60;;;;;;5983475;28;21830;-55
2022/10/19 15:16:41;;;;;;;1.20;1.00;;;24.80;64.80;;;;;;6003458;28;20171;-57
2022/10/19 15:19:43;;;;;;;1.38;1.10;;;24.70;64.90;;;;;;5984947;28;20048;-58
2022/10/19 15:22:44;;;;;;;1.75;1.42;;;24.40;64.80;;;;;;5990621;28;20063;-58
2022/10/19 15:25:46;;;;;;;2.28;1.45;;;24.30;64.80;;;;;;6010292;28;20110;-55
2022/10/19 15:28:48;;;;;;;1.60;1.00;;;24.70;65.00;;;;;;5995654;28;21751;-58
2022/10/19 15:31:55;;;;;;;2.17;1.05;;;24.80;65.00;;;;;;5079163;28;20051;-58
2022/10/19 15:34:57;;;;;;;1.45;1.10;;;24.70;64.90;;;;;;6039307;28;20167;-59
2022/10/19 15:38:01;;;;;;;1.63;1.23;;;24.80;64.90;;;;;;6050048;28;41128;-60
2022/10/19 15:41:04;;;;;;;1.30;0.98;;;24.70;64.70;;;;;;5999193;28;20049;-58
2022/10/19 15:44:21;;;;;;;2.13;1.00;;;24.70;64.70;;;;;;6044053;28;20048;-57
2022/10/19 15:47:24;;;;;;;1.13;0.90;;;24.80;64.80;;;;;;6005283;28;20033;-56
2022/10/19 15:50:37;;;;;;;1.98;1.10;;;24.40;64.50;;;;;;6025036;28;20076;-55
2022/10/19 15:53:41;;;;;;;1.20;0.85;;;24.80;64.80;;;;;;6045795;28;28719;-56
2022/10/19 15:56:45;;;;;;;1.40;0.88;;;24.70;64.80;;;;;;6068022;28;20088;-59
2022/10/19 15:59:47;;;;;;;1.75;0.90;;;24.70;64.80;;;;;;6048402;28;21338;-56
2022/10/19 16:02:49;;;;;;;2.05;0.95;;;24.80;64.90;;;;;;6051345;28;20049;-57
2022/10/19 16:05:52;;;;;;;1.00;0.90;;;24.70;64.90;;;;;;6063633;28;20141;-57
2022/10/19 16:08:54;;;;;;;0.95;0.82;;;24.70;65.10;;;;;;6075837;28;20044;-57
2022/10/19 16:11:56;;;;;;;1.60;0.90;;;24.80;65.30;;;;;;6083358;28;20049;-57